sensor_id;sensor_type;location;lat;lon;timestamp;temperature;humidity
64563;SHT31;50961;48.184;11.636;2022-09-13T00:00:42;14.67;79.32
64563;SHT31;50961;48.184;11.636;2022-09-13T00:03:09;14.70;79.18
64563;SHT31;50961;48.184;11.636;2022-09-13T00:05:38;14.60;79.21
64563;SHT31;50961;48.184;11.636;2022-09-13T00:08:05;14.59;79.83
64563;SHT31;50961;48.184;11.636;2022-09-13T00:10:32;14.50;79.77
64563;SHT31;50961;48.184;11.636;2022-09-13T00:12:58;14.35;80.66
64563;SHT31;50961;48.184;11.636;2022-09-13T00:15:24;14.35;80.44
64563;SHT31;50961;48.184;11.636;2022-09-13T00:17:49;14.29;80.64
64563;SHT31;50961;48.184;11.636;2022-09-13T00:20:14;14.30;81.05
64563;SHT31;50961;48.184;11.636;2022-09-13T00:22:40;14.33;80.91
64563;SHT31;50961;48.184;11.636;2022-09-13T00:25:06;14.22;81.17
64563;SHT31;50961;48.184;11.636;2022-09-13T00:27:34;14.21;80.16
64563;SHT31;50961;48.184;11.636;2022-09-13T00:29:59;14.25;80.73
64563;SHT31;50961;48.184;11.636;2022-09-13T00:32:25;14.14;81.01
64563;SHT31;50961;48.184;11.636;2022-09-13T00:34:50;14.11;81.05
64563;SHT31;50961;48.184;11.636;2022-09-13T00:37:16;14.04;81.45
64563;SHT31;50961;48.184;11.636;2022-09-13T00:39:41;14.08;81.27
64563;SHT31;50961;48.184;11.636;2022-09-13T00:42:13;14.00;81.59
64563;SHT31;50961;48.184;11.636;2022-09-13T00:44:59;13.98;81.48
64563;SHT31;50961;48.184;11.636;2022-09-13T00:49:57;13.89;82.26
64563;SHT31;50961;48.184;11.636;2022-09-13T00:52:24;14.00;81.75
64563;SHT31;50961;48.184;11.636;2022-09-13T00:54:55;14.06;81.53
64563;SHT31;50961;48.184;11.636;2022-09-13T00:57:23;14.06;81.61
64563;SHT31;50961;48.184;11.636;2022-09-13T01:00:02;14.08;81.47
64563;SHT31;50961;48.184;11.636;2022-09-13T01:02:33;14.06;81.48
64563;SHT31;50961;48.184;11.636;2022-09-13T01:04:59;13.97;81.58
64563;SHT31;50961;48.184;11.636;2022-09-13T01:07:24;13.97;81.73
64563;SHT31;50961;48.184;11.636;2022-09-13T01:09:51;13.88;81.66
64563;SHT31;50961;48.184;11.636;2022-09-13T01:15:19;13.94;81.95
64563;SHT31;50961;48.184;11.636;2022-09-13T01:17:44;14.00;81.51
64563;SHT31;50961;48.184;11.636;2022-09-13T01:20:11;13.79;81.93
64563;SHT31;50961;48.184;11.636;2022-09-13T01:33:59;13.68;82.05
64563;SHT31;50961;48.184;11.636;2022-09-13T01:42:37;13.56;82.91
64563;SHT31;50961;48.184;11.636;2022-09-13T01:46:12;13.51;82.75
64563;SHT31;50961;48.184;11.636;2022-09-13T01:48:40;13.43;83.04
64563;SHT31;50961;48.184;11.636;2022-09-13T01:51:13;13.44;83.02
64563;SHT31;50961;48.184;11.636;2022-09-13T01:56:31;13.50;82.95
64563;SHT31;50961;48.184;11.636;2022-09-13T02:02:03;13.57;82.89
64563;SHT31;50961;48.184;11.636;2022-09-13T02:04:42;13.50;82.87
64563;SHT31;50961;48.184;11.636;2022-09-13T02:07:12;13.56;82.69
64563;SHT31;50961;48.184;11.636;2022-09-13T02:09:44;13.59;82.58
64563;SHT31;50961;48.184;11.636;2022-09-13T02:12:17;13.56;82.42
64563;SHT31;50961;48.184;11.636;2022-09-13T02:14:48;13.50;82.46
64563;SHT31;50961;48.184;11.636;2022-09-13T02:17:18;13.43;82.19
64563;SHT31;50961;48.184;11.636;2022-09-13T02:19:50;13.43;82.41
64563;SHT31;50961;48.184;11.636;2022-09-13T02:22:21;13.39;82.42
64563;SHT31;50961;48.184;11.636;2022-09-13T02:24:52;13.32;82.72
64563;SHT31;50961;48.184;11.636;2022-09-13T02:27:23;13.29;82.14
64563;SHT31;50961;48.184;11.636;2022-09-13T02:29:54;13.27;82.62
64563;SHT31;50961;48.184;11.636;2022-09-13T02:32:23;13.29;82.66
64563;SHT31;50961;48.184;11.636;2022-09-13T02:34:53;13.30;82.42
64563;SHT31;50961;48.184;11.636;2022-09-13T02:37:22;13.24;82.21
64563;SHT31;50961;48.184;11.636;2022-09-13T02:40:00;13.22;82.24
64563;SHT31;50961;48.184;11.636;2022-09-13T02:42:33;13.15;82.75
64563;SHT31;50961;48.184;11.636;2022-09-13T02:45:01;13.08;82.43
64563;SHT31;50961;48.184;11.636;2022-09-13T02:53:13;12.96;83.06
64563;SHT31;50961;48.184;11.636;2022-09-13T02:56:09;13.01;83.20
64563;SHT31;50961;48.184;11.636;2022-09-13T02:59:08;13.01;82.98
64563;SHT31;50961;48.184;11.636;2022-09-13T03:01:39;13.01;83.21
64563;SHT31;50961;48.184;11.636;2022-09-13T03:04:06;12.92;83.01
64563;SHT31;50961;48.184;11.636;2022-09-13T03:06:31;12.96;82.99
64563;SHT31;50961;48.184;11.636;2022-09-13T03:08:59;12.89;82.77
64563;SHT31;50961;48.184;11.636;2022-09-13T03:14:39;12.72;83.76
64563;SHT31;50961;48.184;11.636;2022-09-13T03:30:57;12.68;83.37
64563;SHT31;50961;48.184;11.636;2022-09-13T03:33:51;12.67;83.56
64563;SHT31;50961;48.184;11.636;2022-09-13T03:36:25;12.63;83.22
64563;SHT31;50961;48.184;11.636;2022-09-13T03:39:06;12.61;83.79
64563;SHT31;50961;48.184;11.636;2022-09-13T03:41:38;12.61;83.55
64563;SHT31;50961;48.184;11.636;2022-09-13T03:44:09;12.60;83.92
64563;SHT31;50961;48.184;11.636;2022-09-13T03:46:43;12.54;83.81
64563;SHT31;50961;48.184;11.636;2022-09-13T03:49:12;12.58;83.52
64563;SHT31;50961;48.184;11.636;2022-09-13T03:51:39;12.64;83.43
64563;SHT31;50961;48.184;11.636;2022-09-13T03:54:09;12.63;83.62
64563;SHT31;50961;48.184;11.636;2022-09-13T03:56:35;12.60;82.95
64563;SHT31;50961;48.184;11.636;2022-09-13T03:59:00;12.60;83.75
64563;SHT31;50961;48.184;11.636;2022-09-13T04:01:26;12.53;83.38
64563;SHT31;50961;48.184;11.636;2022-09-13T04:03:52;12.44;84.09
64563;SHT31;50961;48.184;11.636;2022-09-13T04:06:17;12.41;83.80
64563;SHT31;50961;48.184;11.636;2022-09-13T04:08:43;12.32;84.95
64563;SHT31;50961;48.184;11.636;2022-09-13T04:11:11;12.38;84.32
64563;SHT31;50961;48.184;11.636;2022-09-13T04:13:36;12.38;83.89
64563;SHT31;50961;48.184;11.636;2022-09-13T04:16:04;12.41;84.18
64563;SHT31;50961;48.184;11.636;2022-09-13T04:18:30;12.33;84.69
64563;SHT31;50961;48.184;11.636;2022-09-13T04:20:59;12.32;84.86
64563;SHT31;50961;48.184;11.636;2022-09-13T04:23:27;12.33;85.16
64563;SHT31;50961;48.184;11.636;2022-09-13T04:25:52;12.41;84.52
64563;SHT31;50961;48.184;11.636;2022-09-13T04:28:18;12.43;84.95
64563;SHT31;50961;48.184;11.636;2022-09-13T04:30:45;12.44;84.79
64563;SHT31;50961;48.184;11.636;2022-09-13T04:33:11;12.41;85.03
64563;SHT31;50961;48.184;11.636;2022-09-13T04:35:37;12.41;84.54
64563;SHT31;50961;48.184;11.636;2022-09-13T04:38:03;12.45;84.77
64563;SHT31;50961;48.184;11.636;2022-09-13T04:40:29;12.45;84.72
64563;SHT31;50961;48.184;11.636;2022-09-13T04:42:54;12.48;84.27
64563;SHT31;50961;48.184;11.636;2022-09-13T04:45:20;12.36;84.18
64563;SHT31;50961;48.184;11.636;2022-09-13T04:47:53;12.33;84.34
64563;SHT31;50961;48.184;11.636;2022-09-13T04:50:22;12.37;84.67
64563;SHT31;50961;48.184;11.636;2022-09-13T04:52:49;12.36;83.94
64563;SHT31;50961;48.184;11.636;2022-09-13T04:55:14;12.37;84.72
64563;SHT31;50961;48.184;11.636;2022-09-13T04:57:40;12.34;84.51
64563;SHT31;50961;48.184;11.636;2022-09-13T05:00:07;12.33;84.35
64563;SHT31;50961;48.184;11.636;2022-09-13T05:02:32;12.26;84.47
64563;SHT31;50961;48.184;11.636;2022-09-13T05:04:58;12.29;84.47
64563;SHT31;50961;48.184;11.636;2022-09-13T05:07:23;12.24;84.76
64563;SHT31;50961;48.184;11.636;2022-09-13T05:09:48;12.38;83.92
64563;SHT31;50961;48.184;11.636;2022-09-13T05:12:14;12.50;83.15
64563;SHT31;50961;48.184;11.636;2022-09-13T05:14:39;12.30;83.73
64563;SHT31;50961;48.184;11.636;2022-09-13T05:17:04;12.40;83.81
64563;SHT31;50961;48.184;11.636;2022-09-13T05:19:30;12.33;84.02
64563;SHT31;50961;48.184;11.636;2022-09-13T05:21:56;12.36;83.89
64563;SHT31;50961;48.184;11.636;2022-09-13T05:24:21;12.41;84.21
64563;SHT31;50961;48.184;11.636;2022-09-13T05:26:46;12.45;83.92
64563;SHT31;50961;48.184;11.636;2022-09-13T05:29:12;12.48;83.83
64563;SHT31;50961;48.184;11.636;2022-09-13T05:31:39;12.51;83.98
64563;SHT31;50961;48.184;11.636;2022-09-13T05:34:08;12.54;83.95
64563;SHT31;50961;48.184;11.636;2022-09-13T05:36:35;12.58;83.77
64563;SHT31;50961;48.184;11.636;2022-09-13T05:39:02;12.63;84.52
64563;SHT31;50961;48.184;11.636;2022-09-13T05:41:28;12.65;84.28
64563;SHT31;50961;48.184;11.636;2022-09-13T05:43:53;12.81;83.90
64563;SHT31;50961;48.184;11.636;2022-09-13T05:46:20;12.88;84.08
64563;SHT31;50961;48.184;11.636;2022-09-13T05:48:46;13.01;83.50
64563;SHT31;50961;48.184;11.636;2022-09-13T05:51:20;13.12;83.63
64563;SHT31;50961;48.184;11.636;2022-09-13T05:53:50;13.16;83.31
64563;SHT31;50961;48.184;11.636;2022-09-13T05:56:21;13.26;83.38
64563;SHT31;50961;48.184;11.636;2022-09-13T05:58:48;13.30;83.29
64563;SHT31;50961;48.184;11.636;2022-09-13T06:01:17;13.36;83.33
64563;SHT31;50961;48.184;11.636;2022-09-13T06:03:48;13.50;83.00
64563;SHT31;50961;48.184;11.636;2022-09-13T06:06:14;13.64;82.69
64563;SHT31;50961;48.184;11.636;2022-09-13T06:08:40;13.75;82.08
64563;SHT31;50961;48.184;11.636;2022-09-13T06:11:10;13.89;81.97
64563;SHT31;50961;48.184;11.636;2022-09-13T06:13:37;14.01;81.48
64563;SHT31;50961;48.184;11.636;2022-09-13T06:16:05;14.11;81.34
64563;SHT31;50961;48.184;11.636;2022-09-13T06:18:31;14.26;81.01
64563;SHT31;50961;48.184;11.636;2022-09-13T06:21:01;14.37;80.63
64563;SHT31;50961;48.184;11.636;2022-09-13T06:23:28;14.50;80.23
64563;SHT31;50961;48.184;11.636;2022-09-13T06:26:00;14.67;80.28
64563;SHT31;50961;48.184;11.636;2022-09-13T06:28:25;14.79;79.96
64563;SHT31;50961;48.184;11.636;2022-09-13T06:30:51;14.90;79.55
64563;SHT31;50961;48.184;11.636;2022-09-13T06:33:16;15.02;79.03
64563;SHT31;50961;48.184;11.636;2022-09-13T06:35:42;15.08;79.03
64563;SHT31;50961;48.184;11.636;2022-09-13T06:38:07;15.22;78.68
64563;SHT31;50961;48.184;11.636;2022-09-13T06:40:32;15.35;77.60
64563;SHT31;50961;48.184;11.636;2022-09-13T06:42:58;15.46;77.50
64563;SHT31;50961;48.184;11.636;2022-09-13T06:45:23;15.63;76.90
64563;SHT31;50961;48.184;11.636;2022-09-13T06:47:48;15.71;76.28
64563;SHT31;50961;48.184;11.636;2022-09-13T06:50:14;15.87;75.02
64563;SHT31;50961;48.184;11.636;2022-09-13T06:52:39;16.08;74.65
64563;SHT31;50961;48.184;11.636;2022-09-13T06:55:05;16.21;73.66
64563;SHT31;50961;48.184;11.636;2022-09-13T06:57:30;16.36;73.39
64563;SHT31;50961;48.184;11.636;2022-09-13T06:59:55;16.45;73.52
64563;SHT31;50961;48.184;11.636;2022-09-13T07:02:21;16.58;73.36
64563;SHT31;50961;48.184;11.636;2022-09-13T07:04:46;16.68;72.43
64563;SHT31;50961;48.184;11.636;2022-09-13T07:07:11;16.84;71.61
64563;SHT31;50961;48.184;11.636;2022-09-13T07:09:37;17.06;72.00
64563;SHT31;50961;48.184;11.636;2022-09-13T07:12:04;17.32;70.25
64563;SHT31;50961;48.184;11.636;2022-09-13T07:14:30;17.48;70.17
64563;SHT31;50961;48.184;11.636;2022-09-13T07:16:55;17.62;69.40
64563;SHT31;50961;48.184;11.636;2022-09-13T07:19:25;17.86;68.49
64563;SHT31;50961;48.184;11.636;2022-09-13T07:21:51;18.05;68.09
64563;SHT31;50961;48.184;11.636;2022-09-13T07:24:17;18.16;67.56
64563;SHT31;50961;48.184;11.636;2022-09-13T07:26:43;18.33;66.79
64563;SHT31;50961;48.184;11.636;2022-09-13T07:29:20;18.55;66.45
64563;SHT31;50961;48.184;11.636;2022-09-13T07:31:49;18.69;66.10
64563;SHT31;50961;48.184;11.636;2022-09-13T07:34:19;18.94;65.63
64563;SHT31;50961;48.184;11.636;2022-09-13T07:36:46;19.06;65.20
64563;SHT31;50961;48.184;11.636;2022-09-13T07:39:12;19.19;64.66
64563;SHT31;50961;48.184;11.636;2022-09-13T07:41:38;19.39;64.33
64563;SHT31;50961;48.184;11.636;2022-09-13T07:44:03;19.68;63.43
64563;SHT31;50961;48.184;11.636;2022-09-13T07:46:31;19.79;63.96
64563;SHT31;50961;48.184;11.636;2022-09-13T07:48:58;19.95;63.58
64563;SHT31;50961;48.184;11.636;2022-09-13T07:51:43;20.16;62.73
64563;SHT31;50961;48.184;11.636;2022-09-13T07:54:14;20.39;61.63
64563;SHT31;50961;48.184;11.636;2022-09-13T07:56:40;20.52;61.41
64563;SHT31;50961;48.184;11.636;2022-09-13T07:59:09;20.66;61.29
64563;SHT31;50961;48.184;11.636;2022-09-13T08:01:40;20.95;61.04
64563;SHT31;50961;48.184;11.636;2022-09-13T08:04:08;21.29;60.69
64563;SHT31;50961;48.184;11.636;2022-09-13T08:06:35;21.38;59.95
64563;SHT31;50961;48.184;11.636;2022-09-13T08:09:02;21.63;59.63
64563;SHT31;50961;48.184;11.636;2022-09-13T08:11:31;21.86;58.09
64563;SHT31;50961;48.184;11.636;2022-09-13T08:13:57;21.94;56.94
64563;SHT31;50961;48.184;11.636;2022-09-13T08:16:24;22.00;57.27
64563;SHT31;50961;48.184;11.636;2022-09-13T08:18:51;22.13;57.42
64563;SHT31;50961;48.184;11.636;2022-09-13T08:21:17;22.20;57.75
64563;SHT31;50961;48.184;11.636;2022-09-13T08:23:43;22.40;58.21
64563;SHT31;50961;48.184;11.636;2022-09-13T08:26:09;22.73;56.95
64563;SHT31;50961;48.184;11.636;2022-09-13T08:28:36;22.96;55.76
64563;SHT31;50961;48.184;11.636;2022-09-13T08:31:10;23.09;55.95
64563;SHT31;50961;48.184;11.636;2022-09-13T08:33:35;23.36;56.19
64563;SHT31;50961;48.184;11.636;2022-09-13T08:36:02;23.54;54.73
64563;SHT31;50961;48.184;11.636;2022-09-13T08:38:28;23.75;53.07
64563;SHT31;50961;48.184;11.636;2022-09-13T08:40:56;23.74;51.17
64563;SHT31;50961;48.184;11.636;2022-09-13T08:45:58;23.96;49.95
64563;SHT31;50961;48.184;11.636;2022-09-13T08:48:33;24.15;50.25
64563;SHT31;50961;48.184;11.636;2022-09-13T08:51:03;24.32;50.40
64563;SHT31;50961;48.184;11.636;2022-09-13T08:53:30;24.39;49.24
64563;SHT31;50961;48.184;11.636;2022-09-13T08:56:21;24.53;48.59
64563;SHT31;50961;48.184;11.636;2022-09-13T08:59:28;24.87;49.43
64563;SHT31;50961;48.184;11.636;2022-09-13T09:02:27;25.30;48.78
64563;SHT31;50961;48.184;11.636;2022-09-13T09:07:40;25.83;48.39
64563;SHT31;50961;48.184;11.636;2022-09-13T09:10:16;25.94;47.81
64563;SHT31;50961;48.184;11.636;2022-09-13T09:12:50;26.22;47.27
64563;SHT31;50961;48.184;11.636;2022-09-13T09:15:19;26.38;47.13
64563;SHT31;50961;48.184;11.636;2022-09-13T09:20:36;26.68;47.70
64563;SHT31;50961;48.184;11.636;2022-09-13T09:23:13;26.84;47.47
64563;SHT31;50961;48.184;11.636;2022-09-13T09:25:40;27.52;46.84
64563;SHT31;50961;48.184;11.636;2022-09-13T09:28:12;27.37;45.61
64563;SHT31;50961;48.184;11.636;2022-09-13T09:30:45;27.95;46.69
64563;SHT31;50961;48.184;11.636;2022-09-13T09:33:24;27.96;46.39
64563;SHT31;50961;48.184;11.636;2022-09-13T09:36:19;28.00;46.43
64563;SHT31;50961;48.184;11.636;2022-09-13T09:38:49;27.99;45.47
64563;SHT31;50961;48.184;11.636;2022-09-13T09:43:57;28.69;44.82
64563;SHT31;50961;48.184;11.636;2022-09-13T09:46:27;28.64;44.07
64563;SHT31;50961;48.184;11.636;2022-09-13T09:49:13;29.08;43.93
64563;SHT31;50961;48.184;11.636;2022-09-13T09:52:01;29.09;43.87
64563;SHT31;50961;48.184;11.636;2022-09-13T09:54:32;29.10;43.94
64563;SHT31;50961;48.184;11.636;2022-09-13T09:56:59;29.36;43.34
64563;SHT31;50961;48.184;11.636;2022-09-13T09:59:28;29.61;42.66
64563;SHT31;50961;48.184;11.636;2022-09-13T10:01:55;29.61;44.07
64563;SHT31;50961;48.184;11.636;2022-09-13T10:04:22;29.73;43.88
64563;SHT31;50961;48.184;11.636;2022-09-13T10:06:49;29.89;42.66
64563;SHT31;50961;48.184;11.636;2022-09-13T10:09:18;29.86;42.69
64563;SHT31;50961;48.184;11.636;2022-09-13T10:11:52;30.43;44.59
64563;SHT31;50961;48.184;11.636;2022-09-13T10:14:40;30.63;42.68
64563;SHT31;50961;48.184;11.636;2022-09-13T10:17:13;30.70;41.79
64563;SHT31;50961;48.184;11.636;2022-09-13T10:19:41;30.57;40.39
64563;SHT31;50961;48.184;11.636;2022-09-13T10:22:15;30.50;40.91
64563;SHT31;50961;48.184;11.636;2022-09-13T10:24:40;30.22;40.24
64563;SHT31;50961;48.184;11.636;2022-09-13T10:27:19;30.69;40.53
64563;SHT31;50961;48.184;11.636;2022-09-13T10:29:47;30.76;40.02
64563;SHT31;50961;48.184;11.636;2022-09-13T10:32:15;30.69;38.92
64563;SHT31;50961;48.184;11.636;2022-09-13T10:34:44;30.91;40.22
64563;SHT31;50961;48.184;11.636;2022-09-13T10:37:19;30.81;40.02
64563;SHT31;50961;48.184;11.636;2022-09-13T10:42:21;31.22;39.41
64563;SHT31;50961;48.184;11.636;2022-09-13T10:45:07;31.53;38.97
64563;SHT31;50961;48.184;11.636;2022-09-13T10:47:45;31.32;38.47
64563;SHT31;50961;48.184;11.636;2022-09-13T10:50:22;31.12;39.79
64563;SHT31;50961;48.184;11.636;2022-09-13T10:52:50;31.28;39.70
64563;SHT31;50961;48.184;11.636;2022-09-13T10:57:46;31.07;39.48
64563;SHT31;50961;48.184;11.636;2022-09-13T11:00:15;31.36;39.88
64563;SHT31;50961;48.184;11.636;2022-09-13T11:03:11;31.41;37.68
64563;SHT31;50961;48.184;11.636;2022-09-13T11:08:50;31.80;38.91
64563;SHT31;50961;48.184;11.636;2022-09-13T11:12:26;31.69;39.46
64563;SHT31;50961;48.184;11.636;2022-09-13T11:20:44;31.31;39.38
64563;SHT31;50961;48.184;11.636;2022-09-13T11:31:32;30.32;41.56
64563;SHT31;50961;48.184;11.636;2022-09-13T11:37:12;30.30;41.83
64563;SHT31;50961;48.184;11.636;2022-09-13T11:39:50;30.13;41.42
64563;SHT31;50961;48.184;11.636;2022-09-13T11:51:13;29.19;41.11
64563;SHT31;50961;48.184;11.636;2022-09-13T11:53:47;29.22;42.68
64563;SHT31;50961;48.184;11.636;2022-09-13T11:56:26;29.06;43.00
64563;SHT31;50961;48.184;11.636;2022-09-13T11:59:18;29.03;44.06
64563;SHT31;50961;48.184;11.636;2022-09-13T12:01:49;28.98;41.78
64563;SHT31;50961;48.184;11.636;2022-09-13T12:04:37;29.23;41.10
64563;SHT31;50961;48.184;11.636;2022-09-13T12:07:14;29.20;42.01
64563;SHT31;50961;48.184;11.636;2022-09-13T12:10:05;29.25;43.26
64563;SHT31;50961;48.184;11.636;2022-09-13T12:12:31;29.34;44.68
64563;SHT31;50961;48.184;11.636;2022-09-13T12:15:06;29.43;43.42
64563;SHT31;50961;48.184;11.636;2022-09-13T12:17:47;29.57;44.51
64563;SHT31;50961;48.184;11.636;2022-09-13T12:20:34;29.74;43.35
64563;SHT31;50961;48.184;11.636;2022-09-13T12:23:05;29.92;42.04
64563;SHT31;50961;48.184;11.636;2022-09-13T12:25:42;30.37;42.71
64563;SHT31;50961;48.184;11.636;2022-09-13T12:30:45;31.25;41.75
64563;SHT31;50961;48.184;11.636;2022-09-13T12:33:14;31.29;40.42
64563;SHT31;50961;48.184;11.636;2022-09-13T12:36:10;31.67;40.69
64563;SHT31;50961;48.184;11.636;2022-09-13T12:39:17;31.62;39.63
64563;SHT31;50961;48.184;11.636;2022-09-13T12:42:08;31.90;39.42
64563;SHT31;50961;48.184;11.636;2022-09-13T12:47:41;32.31;39.23
64563;SHT31;50961;48.184;11.636;2022-09-13T12:50:30;32.25;38.11
64563;SHT31;50961;48.184;11.636;2022-09-13T12:56:10;32.39;38.29
64563;SHT31;50961;48.184;11.636;2022-09-13T13:01:21;32.76;38.46
64563;SHT31;50961;48.184;11.636;2022-09-13T13:04:09;32.44;34.79
64563;SHT31;50961;48.184;11.636;2022-09-13T13:06:56;32.67;36.30
64563;SHT31;50961;48.184;11.636;2022-09-13T13:09:45;32.85;36.56
64563;SHT31;50961;48.184;11.636;2022-09-13T13:14:49;32.89;36.73
64563;SHT31;50961;48.184;11.636;2022-09-13T13:17:36;33.13;36.90
64563;SHT31;50961;48.184;11.636;2022-09-13T13:23:27;33.17;35.14
64563;SHT31;50961;48.184;11.636;2022-09-13T13:39:12;33.65;35.42
64563;SHT31;50961;48.184;11.636;2022-09-13T13:42:10;33.80;35.35
64563;SHT31;50961;48.184;11.636;2022-09-13T13:57:49;33.46;32.84
64563;SHT31;50961;48.184;11.636;2022-09-13T14:00:21;33.53;33.82
64563;SHT31;50961;48.184;11.636;2022-09-13T14:08:14;33.72;35.59
64563;SHT31;50961;48.184;11.636;2022-09-13T14:10:56;33.78;35.49
64563;SHT31;50961;48.184;11.636;2022-09-13T14:21:26;32.85;35.13
64563;SHT31;50961;48.184;11.636;2022-09-13T14:24:17;32.58;35.87
64563;SHT31;50961;48.184;11.636;2022-09-13T14:26:44;32.45;36.95
64563;SHT31;50961;48.184;11.636;2022-09-13T14:29:15;31.92;35.46
64563;SHT31;50961;48.184;11.636;2022-09-13T14:31:44;31.86;36.90
64563;SHT31;50961;48.184;11.636;2022-09-13T14:34:22;31.66;37.12
64563;SHT31;50961;48.184;11.636;2022-09-13T14:36:53;31.52;36.35
64563;SHT31;50961;48.184;11.636;2022-09-13T14:39:20;31.42;36.85
64563;SHT31;50961;48.184;11.636;2022-09-13T14:41:45;31.22;37.27
64563;SHT31;50961;48.184;11.636;2022-09-13T14:44:20;31.07;37.61
64563;SHT31;50961;48.184;11.636;2022-09-13T14:47:11;30.69;37.49
64563;SHT31;50961;48.184;11.636;2022-09-13T14:49:41;30.55;39.02
64563;SHT31;50961;48.184;11.636;2022-09-13T14:52:25;30.50;38.76
64563;SHT31;50961;48.184;11.636;2022-09-13T14:54:56;30.60;39.57
64563;SHT31;50961;48.184;11.636;2022-09-13T14:57:27;30.63;39.65
64563;SHT31;50961;48.184;11.636;2022-09-13T14:59:56;30.71;39.61
64563;SHT31;50961;48.184;11.636;2022-09-13T15:02:25;30.83;39.80
64563;SHT31;50961;48.184;11.636;2022-09-13T15:04:58;30.78;38.54
64563;SHT31;50961;48.184;11.636;2022-09-13T15:07:33;30.83;38.17
64563;SHT31;50961;48.184;11.636;2022-09-13T15:15:24;30.28;38.50
64563;SHT31;50961;48.184;11.636;2022-09-13T15:17:55;30.04;36.53
64563;SHT31;50961;48.184;11.636;2022-09-13T15:20:23;29.77;38.10
64563;SHT31;50961;48.184;11.636;2022-09-13T15:22:49;29.67;39.17
64563;SHT31;50961;48.184;11.636;2022-09-13T15:25:23;29.37;39.68
64563;SHT31;50961;48.184;11.636;2022-09-13T15:27:49;29.26;41.01
64563;SHT31;50961;48.184;11.636;2022-09-13T15:32:47;29.15;43.24
64563;SHT31;50961;48.184;11.636;2022-09-13T15:35:28;28.92;43.79
64563;SHT31;50961;48.184;11.636;2022-09-13T15:38:26;28.95;43.74
64563;SHT31;50961;48.184;11.636;2022-09-13T15:41:12;28.96;43.95
64563;SHT31;50961;48.184;11.636;2022-09-13T15:43:37;28.89;43.91
64563;SHT31;50961;48.184;11.636;2022-09-13T15:46:04;28.69;44.79
64563;SHT31;50961;48.184;11.636;2022-09-13T15:48:34;28.61;44.90
64563;SHT31;50961;48.184;11.636;2022-09-13T15:53:35;28.39;45.17
64563;SHT31;50961;48.184;11.636;2022-09-13T15:56:02;28.23;46.31
64563;SHT31;50961;48.184;11.636;2022-09-13T15:58:28;28.06;47.11
64563;SHT31;50961;48.184;11.636;2022-09-13T16:00:53;28.09;46.96
64563;SHT31;50961;48.184;11.636;2022-09-13T16:03:19;27.99;47.18
64563;SHT31;50961;48.184;11.636;2022-09-13T16:05:44;27.59;48.39
64563;SHT31;50961;48.184;11.636;2022-09-13T16:08:10;27.35;49.44
64563;SHT31;50961;48.184;11.636;2022-09-13T16:10:36;27.21;50.11
64563;SHT31;50961;48.184;11.636;2022-09-13T16:13:01;27.15;50.33
64563;SHT31;50961;48.184;11.636;2022-09-13T16:15:26;27.12;50.32
64563;SHT31;50961;48.184;11.636;2022-09-13T16:17:52;27.11;50.68
64563;SHT31;50961;48.184;11.636;2022-09-13T16:20:18;26.83;51.59
64563;SHT31;50961;48.184;11.636;2022-09-13T16:22:44;26.63;52.09
64563;SHT31;50961;48.184;11.636;2022-09-13T16:25:11;26.45;53.48
64563;SHT31;50961;48.184;11.636;2022-09-13T16:27:37;26.49;53.00
64563;SHT31;50961;48.184;11.636;2022-09-13T16:30:04;26.36;53.78
64563;SHT31;50961;48.184;11.636;2022-09-13T16:32:29;26.26;54.38
64563;SHT31;50961;48.184;11.636;2022-09-13T16:34:54;26.21;54.56
64563;SHT31;50961;48.184;11.636;2022-09-13T16:37:20;26.21;54.37
64563;SHT31;50961;48.184;11.636;2022-09-13T16:39:45;26.09;54.30
64563;SHT31;50961;48.184;11.636;2022-09-13T16:42:12;26.09;54.52
64563;SHT31;50961;48.184;11.636;2022-09-13T16:44:38;25.94;54.76
64563;SHT31;50961;48.184;11.636;2022-09-13T16:47:04;25.83;54.48
64563;SHT31;50961;48.184;11.636;2022-09-13T16:49:29;25.74;53.93
64563;SHT31;50961;48.184;11.636;2022-09-13T16:51:55;25.65;54.51
64563;SHT31;50961;48.184;11.636;2022-09-13T16:54:24;25.69;53.98
64563;SHT31;50961;48.184;11.636;2022-09-13T16:56:51;25.65;54.87
64563;SHT31;50961;48.184;11.636;2022-09-13T16:59:16;25.50;55.57
64563;SHT31;50961;48.184;11.636;2022-09-13T17:01:41;25.46;55.88
64563;SHT31;50961;48.184;11.636;2022-09-13T17:04:07;25.42;55.83
64563;SHT31;50961;48.184;11.636;2022-09-13T17:06:32;25.30;55.61
64563;SHT31;50961;48.184;11.636;2022-09-13T17:08:59;25.23;56.26
64563;SHT31;50961;48.184;11.636;2022-09-13T17:11:28;25.18;56.35
64563;SHT31;50961;48.184;11.636;2022-09-13T17:13:54;25.09;56.88
64563;SHT31;50961;48.184;11.636;2022-09-13T17:18:55;24.96;57.36
64563;SHT31;50961;48.184;11.636;2022-09-13T17:21:21;24.88;57.68
64563;SHT31;50961;48.184;11.636;2022-09-13T17:23:47;24.75;58.61
64563;SHT31;50961;48.184;11.636;2022-09-13T17:26:13;24.67;59.27
64563;SHT31;50961;48.184;11.636;2022-09-13T17:28:38;24.59;59.07
64563;SHT31;50961;48.184;11.636;2022-09-13T17:31:04;24.56;58.92
64563;SHT31;50961;48.184;11.636;2022-09-13T17:33:29;24.54;59.05
64563;SHT31;50961;48.184;11.636;2022-09-13T17:36:12;24.50;59.28
64563;SHT31;50961;48.184;11.636;2022-09-13T17:38:39;24.44;59.55
64563;SHT31;50961;48.184;11.636;2022-09-13T17:41:10;24.40;59.37
64563;SHT31;50961;48.184;11.636;2022-09-13T17:43:36;24.32;59.61
64563;SHT31;50961;48.184;11.636;2022-09-13T17:46:10;24.24;60.20
64563;SHT31;50961;48.184;11.636;2022-09-13T17:48:36;24.20;60.12
64563;SHT31;50961;48.184;11.636;2022-09-13T17:51:22;24.17;60.67
64563;SHT31;50961;48.184;11.636;2022-09-13T17:53:50;24.08;61.28
64563;SHT31;50961;48.184;11.636;2022-09-13T17:56:20;23.99;61.00
64563;SHT31;50961;48.184;11.636;2022-09-13T17:58:45;23.96;60.92
64563;SHT31;50961;48.184;11.636;2022-09-13T18:01:11;23.88;61.54
64563;SHT31;50961;48.184;11.636;2022-09-13T18:03:37;23.86;61.55
64563;SHT31;50961;48.184;11.636;2022-09-13T18:06:06;23.78;61.77
64563;SHT31;50961;48.184;11.636;2022-09-13T18:08:33;23.81;61.57
64563;SHT31;50961;48.184;11.636;2022-09-13T18:11:04;23.71;61.40
64563;SHT31;50961;48.184;11.636;2022-09-13T18:13:31;23.75;61.86
64563;SHT31;50961;48.184;11.636;2022-09-13T18:16:18;23.69;62.28
64563;SHT31;50961;48.184;11.636;2022-09-13T18:18:43;23.61;62.66
64563;SHT31;50961;48.184;11.636;2022-09-13T18:21:13;23.47;63.30
64563;SHT31;50961;48.184;11.636;2022-09-13T18:23:39;23.38;63.47